Time;durP1;ratioP1;P1;durP2;ratioP2;P2;SDS_P1;SDS_P2;PMS_P1;PMS_P2;Temp;Humidity;BMP_temperature;BMP_pressure;BME280_temperature;BME280_humidity;BME280_pressure;Samples;Min_cycle;Max_cycle;Signal;HPM_P1;HPM_P2
2024/01/03 00:02:59;;;;;;;1.27;0.70;;;;;;;4.84;100.00;96162.22;6213454;28;20201;-59
2024/01/03 00:06:02;;;;;;;0.70;0.70;;;;;;;4.76;100.00;96173.16;6206466;28;20335;-59
2024/01/03 00:09:07;;;;;;;1.20;0.93;;;;;;;4.83;100.00;96176.44;6211274;28;20281;-59
2024/01/03 00:12:22;;;;;;;0.90;0.60;;;;;;;4.76;100.00;96152.06;6205316;28;20210;-59
2024/01/03 00:15:34;;;;;;;0.90;0.90;;;;;;;4.83;100.00;96161.41;6211994;28;20709;-57
2024/01/03 00:18:53;;;;;;;0.90;0.90;;;;;;;4.87;100.00;96186.25;6213603;28;20222;-58
2024/01/03 00:21:56;;;;;;;0.97;0.60;;;;;;;4.84;100.00;96154.31;6214130;28;20191;-59
2024/01/03 00:25:01;;;;;;;1.97;0.50;;;;;;;4.85;100.00;96175.16;6211221;28;20198;-59
2024/01/03 00:28:04;;;;;;;1.20;0.60;;;;;;;4.82;100.00;96186.19;6214062;28;20553;-59
2024/01/03 00:31:09;;;;;;;1.00;0.60;;;;;;;4.81;100.00;96181.16;6214946;28;20200;-59
2024/01/03 00:34:21;;;;;;;1.67;0.57;;;;;;;4.85;100.00;96180.44;6215004;28;20215;-58
2024/01/03 00:37:28;;;;;;;1.30;0.60;;;;;;;4.87;100.00;96194.16;6210238;28;20203;-58
2024/01/03 00:40:32;;;;;;;1.03;0.60;;;;;;;4.89;100.00;96191.31;6210127;28;20215;-58
2024/01/03 00:43:34;;;;;;;1.80;0.73;;;;;;;4.90;100.00;96191.06;6215239;28;20210;-57
2024/01/03 00:46:37;;;;;;;1.57;0.70;;;;;;;4.87;100.00;96194.16;6210160;28;20208;-57
2024/01/03 00:49:40;;;;;;;1.10;1.00;;;;;;;4.91;100.00;96205.03;6229341;28;20214;-58
2024/01/03 00:52:43;;;;;;;1.77;0.60;;;;;;;4.88;100.00;96195.78;6210771;28;20310;-57
2024/01/03 00:55:47;;;;;;;1.47;1.00;;;;;;;4.91;100.00;96189.22;6215373;28;20207;-59
2024/01/03 00:58:50;;;;;;;1.17;0.97;;;;;;;4.90;100.00;96196.34;6214383;28;20209;-56
2024/01/03 01:01:54;;;;;;;0.80;0.80;;;;;;;4.89;100.00;96202.66;6207698;28;20198;-56
2024/01/03 01:04:56;;;;;;;0.63;0.60;;;;;;;4.90;100.00;96198.19;6213274;28;20272;-56
2024/01/03 01:07:59;;;;;;;1.57;1.00;;;;;;;4.93;100.00;96213.53;6212089;28;20682;-59
2024/01/03 01:11:02;;;;;;;1.90;0.67;;;;;;;4.94;100.00;96201.94;6191902;28;20546;-59
2024/01/03 01:14:04;;;;;;;1.37;0.67;;;;;;;4.94;100.00;96203.78;6208393;28;20712;-58
2024/01/03 01:17:07;;;;;;;0.93;0.60;;;;;;;4.92;100.00;96204.78;6204668;28;20195;-58
2024/01/03 01:20:10;;;;;;;1.23;0.60;;;;;;;4.91;100.00;96205.84;6210674;28;20280;-58
2024/01/03 01:23:13;;;;;;;0.60;0.60;;;;;;;4.90;100.00;96206.88;6204040;28;20254;-57
2024/01/03 01:26:15;;;;;;;1.07;0.93;;;;;;;4.91;100.00;96205.03;6209138;28;20199;-58
2024/01/03 01:29:18;;;;;;;1.80;0.73;;;;;;;4.92;100.00;96209.28;6209772;28;20200;-59
2024/01/03 01:32:21;;;;;;;1.13;0.90;;;;;;;4.92;100.00;96210.06;6186769;28;20275;-58
2024/01/03 01:35:25;;;;;;;0.60;0.60;;;;;;;4.91;100.00;96203.19;6201781;28;20216;-58
2024/01/03 01:38:27;;;;;;;0.93;0.90;;;;;;;4.91;100.00;96202.41;6202895;28;20195;-56
2024/01/03 01:41:30;;;;;;;1.73;0.73;;;;;;;4.91;100.00;96205.84;6202035;28;20565;-57
2024/01/03 01:44:34;;;;;;;0.83;0.83;;;;;;;4.89;100.00;96194.75;6207197;28;20201;-59
2024/01/03 01:47:39;;;;;;;3.57;0.60;;;;;;;4.90;100.00;96195.53;6207838;28;20200;-59
2024/01/03 01:50:44;;;;;;;1.10;0.90;;;;;;;4.88;100.00;96193.16;6209535;28;20200;-58
2024/01/03 01:53:47;;;;;;;0.80;0.80;;;;;;;4.89;100.00;96183.38;6212548;28;20268;-58
2024/01/03 01:56:50;;;;;;;1.77;0.60;;;;;;;4.85;100.00;96188.34;6204849;28;20287;-57
2024/01/03 01:59:53;;;;;;;2.63;1.30;;;;;;;4.83;100.00;96197.56;6205075;28;20666;-58
2024/01/03 02:02:56;;;;;;;2.40;1.30;;;;;;;4.74;100.00;96181.34;6189183;28;20202;-57
2024/01/03 02:05:59;;;;;;;1.93;1.03;;;;;;;4.79;100.00;96191.94;6205181;28;20346;-58
2024/01/03 02:09:03;;;;;;;0.80;0.80;;;;;;;4.79;100.00;96196.44;6209503;28;20202;-57
2024/01/03 02:12:06;;;;;;;1.00;0.70;;;;;;;4.77;100.00;96186.09;6186459;28;20770;-57
2024/01/03 02:15:09;;;;;;;1.20;1.00;;;;;;;4.76;100.00;96189.78;6208789;28;20191;-59
2024/01/03 02:18:13;;;;;;;0.90;0.90;;;;;;;4.73;100.00;96185.00;6213669;28;20261;-57
2024/01/03 02:21:17;;;;;;;1.50;1.10;;;;;;;4.69;100.00;96185.72;6209090;28;20200;-58
2024/01/03 02:24:20;;;;;;;1.50;1.07;;;;;;;4.63;100.00;96169.84;6189236;28;20282;-57
2024/01/03 02:27:22;;;;;;;0.90;0.80;;;;;;;4.55;100.00;96164.16;6205612;28;20196;-56
2024/01/03 02:30:25;;;;;;;5.20;1.00;;;;;;;4.48;100.00;96166.13;6204838;28;20189;-57
2024/01/03 02:33:28;;;;;;;3.33;0.87;;;;;;;4.40;100.00;96183.16;6189171;28;20222;-58
2024/01/03 02:36:31;;;;;;;1.73;0.80;;;;;;;4.32;100.00;96181.72;6208889;28;20190;-58
2024/01/03 02:39:34;;;;;;;3.47;1.00;;;;;;;4.28;100.00;96179.78;6204332;28;20466;-58
2024/01/03 02:42:36;;;;;;;1.10;1.00;;;;;;;4.24;100.00;96176.06;6205922;28;20188;-58
2024/01/03 02:45:39;;;;;;;1.00;0.90;;;;;;;4.25;100.00;96175.03;6202157;28;20354;-58
2024/01/03 02:48:42;;;;;;;2.40;1.10;;;;;;;4.26;100.00;96176.59;6198548;28;20208;-58
2024/01/03 02:51:44;;;;;;;2.40;1.00;;;;;;;4.31;100.00;96179.34;6207725;28;20228;-58
2024/01/03 02:54:47;;;;;;;1.50;0.97;;;;;;;4.68;100.00;96169.13;6206111;28;20737;-58
2024/01/03 02:57:49;;;;;;;3.43;1.13;;;;;;;4.73;100.00;96147.25;6206371;28;20236;-57
2024/01/03 03:00:52;;;;;;;1.00;0.90;;;;;;;5.08;100.00;96154.88;6203108;28;20244;-58
2024/01/03 03:03:56;;;;;;;0.40;0.30;;;;;;;6.50;100.00;96149.47;6201688;28;20193;-56
2024/01/03 03:06:58;;;;;;;0.17;0.10;;;;;;;7.67;100.00;96123.59;6207032;28;20667;-57
2024/01/03 03:10:01;;;;;;;0.10;0.10;;;;;;;9.01;100.00;96129.50;6204916;28;20699;-58
2024/01/03 03:13:04;;;;;;;0.10;0.10;;;;;;;9.78;95.04;96153.13;6203463;28;20762;-58
2024/01/03 03:16:07;;;;;;;0.03;0.03;;;;;;;9.74;94.49;96133.47;6208497;28;20627;-57
2024/01/03 03:19:10;;;;;;;0.20;0.10;;;;;;;9.47;95.94;96113.41;6204985;28;20210;-58
2024/01/03 03:22:13;;;;;;;0.30;0.20;;;;;;;10.08;89.25;96144.16;6202350;28;20193;-58
2024/01/03 03:25:16;;;;;;;1.53;0.20;;;;;;;9.75;93.52;96170.44;6199124;28;20197;-58
2024/01/03 03:28:20;;;;;;;0.20;0.20;;;;;;;9.96;87.92;96157.81;6203439;28;20193;-55
2024/01/03 03:31:22;;;;;;;0.20;0.10;;;;;;;10.09;89.06;96157.19;6208444;28;20282;-58
2024/01/03 03:34:25;;;;;;;0.20;0.10;;;;;;;10.19;86.18;96147.56;6206994;28;20210;-57
2024/01/03 03:37:27;;;;;;;0.10;0.10;;;;;;;10.28;85.05;96156.56;6196409;28;20228;-57
2024/01/03 03:40:30;;;;;;;0.23;0.20;;;;;;;10.00;86.56;96148.22;6205288;28;20200;-59
2024/01/03 03:43:33;;;;;;;0.20;0.20;;;;;;;10.02;85.68;96155.91;6187927;28;20202;-60
2024/01/03 03:46:36;;;;;;;0.10;0.10;;;;;;;9.74;88.43;96176.00;6201486;28;20572;-57
2024/01/03 03:49:38;;;;;;;0.20;0.20;;;;;;;10.23;83.44;96161.91;6203196;28;20673;-58
2024/01/03 03:52:41;;;;;;;0.20;0.20;;;;;;;10.02;84.45;96179.88;6203277;28;20348;-57
2024/01/03 03:55:44;;;;;;;0.20;0.20;;;;;;;9.98;85.46;96176.16;6205084;28;20208;-58
2024/01/03 03:58:46;;;;;;;0.47;0.13;;;;;;;9.83;86.53;96182.34;6204509;28;20204;-58
2024/01/03 04:01:50;;;;;;;0.20;0.20;;;;;;;9.38;91.04;96178.81;6211284;28;20209;-58
2024/01/03 04:04:54;;;;;;;0.93;0.20;;;;;;;9.06;92.83;96173.81;6204176;28;20198;-60
2024/01/03 04:07:56;;;;;;;0.10;0.10;;;;;;;8.84;94.42;96182.09;6199224;28;20204;-58
2024/01/03 04:11:03;;;;;;;0.20;0.20;;;;;;;8.98;93.86;96195.63;6205122;28;20213;-58
2024/01/03 04:14:08;;;;;;;0.10;0.10;;;;;;;8.85;96.58;96194.31;6206910;28;20220;-59
2024/01/03 04:17:12;;;;;;;0.10;0.10;;;;;;;9.71;86.53;96180.03;6205862;28;20744;-56
2024/01/03 04:20:15;;;;;;;0.20;0.20;;;;;;;9.70;86.85;96174.97;6199154;28;20201;-59
2024/01/03 04:23:18;;;;;;;0.20;0.20;;;;;;;9.81;84.78;96166.69;6203382;28;20194;-57
2024/01/03 04:26:21;;;;;;;0.10;0.10;;;;;;;9.91;82.85;96165.03;6202615;28;20209;-59
2024/01/03 04:29:24;;;;;;;0.20;0.20;;;;;;;10.09;81.61;96175.03;6206460;28;20233;-59
2024/01/03 04:32:27;;;;;;;0.20;0.20;;;;;;;10.51;77.19;96184.38;6209013;28;20255;-57
2024/01/03 04:35:29;;;;;;;0.20;0.20;;;;;;;10.24;79.86;96187.47;6205000;28;20693;-58
2024/01/03 04:38:32;;;;;;;0.10;0.10;;;;;;;10.44;76.09;96189.19;6208029;28;20208;-58
2024/01/03 04:41:37;;;;;;;0.33;0.27;;;;;;;10.42;74.83;96170.06;6200205;28;20717;-58
2024/01/03 04:44:44;;;;;;;0.37;0.27;;;;;;;10.29;77.26;96201.53;6199336;28;20189;-58
2024/01/03 04:47:47;;;;;;;0.27;0.20;;;;;;;10.31;74.90;96190.63;6205736;28;20194;-56
2024/01/03 04:50:50;;;;;;;0.40;0.20;;;;;;;10.27;75.32;96202.91;6214470;28;20197;-56
2024/01/03 04:53:53;;;;;;;0.30;0.30;;;;;;;10.74;70.50;96191.66;6200489;28;20238;-58
2024/01/03 04:56:56;;;;;;;0.53;0.20;;;;;;;10.49;73.37;96211.28;6210000;28;20702;-56
2024/01/03 04:59:59;;;;;;;0.33;0.30;;;;;;;10.16;74.29;96180.84;6212463;28;20199;-58
2024/01/03 05:03:01;;;;;;;0.50;0.37;;;;;;;10.03;72.97;96184.91;6205810;28;20190;-57
2024/01/03 05:06:05;;;;;;;0.63;0.30;;;;;;;10.24;71.53;96208.75;6209018;28;20669;-59
2024/01/03 05:09:08;;;;;;;0.20;0.20;;;;;;;9.85;76.30;96217.44;6208410;28;20729;-58
2024/01/03 05:12:11;;;;;;;0.20;0.20;;;;;;;9.72;76.92;96212.72;6207317;28;20201;-59
2024/01/03 05:15:13;;;;;;;0.50;0.47;;;;;;;9.68;74.99;96228.41;6208626;28;20197;-58
2024/01/03 05:18:16;;;;;;;0.23;0.20;;;;;;;9.99;72.05;96218.44;6216941;28;20201;-59
2024/01/03 05:21:19;;;;;;;0.40;0.27;;;;;;;9.80;75.55;96222.78;6206259;28;20242;-55
2024/01/03 05:24:22;;;;;;;0.93;0.20;;;;;;;9.96;71.90;96234.97;6204608;28;20195;-59
2024/01/03 05:27:24;;;;;;;0.30;0.20;;;;;;;9.92;74.49;96233.91;6207175;28;20202;-58
2024/01/03 05:30:27;;;;;;;1.10;0.33;;;;;;;10.58;66.44;96246.88;6208532;28;20197;-57
2024/01/03 05:33:30;;;;;;;0.37;0.27;;;;;;;10.46;68.94;96229.66;6202759;28;20214;-59
2024/01/03 05:36:33;;;;;;;0.73;0.20;;;;;;;10.46;67.28;96249.09;6208985;28;20554;-56
2024/01/03 05:39:37;;;;;;;0.53;0.20;;;;;;;10.16;71.14;96227.97;6203990;28;20681;-57
2024/01/03 05:42:39;;;;;;;0.30;0.30;;;;;;;10.11;70.02;96238.63;6210680;28;20205;-58
2024/01/03 05:45:42;;;;;;;0.20;0.10;;;;;;;10.23;70.10;96231.09;6208870;28;20202;-58
2024/01/03 05:48:45;;;;;;;0.57;0.30;;;;;;;9.86;73.71;96220.91;6205735;28;20324;-57
2024/01/03 05:51:47;;;;;;;0.20;0.20;;;;;;;10.21;70.26;96227.94;6215602;28;20239;-59
2024/01/03 05:54:50;;;;;;;0.50;0.20;;;;;;;10.28;71.94;96204.47;6184053;28;20240;-57
2024/01/03 05:57:52;;;;;;;0.20;0.20;;;;;;;10.40;71.71;96214.81;6204291;28;20280;-59
2024/01/03 06:00:55;;;;;;;1.03;0.20;;;;;;;10.37;71.65;96210.81;6200979;28;20196;-59
2024/01/03 06:03:57;;;;;;;0.20;0.20;;;;;;;10.48;69.87;96193.69;6206602;28;20194;-59
2024/01/03 06:07:00;;;;;;;0.20;0.20;;;;;;;10.50;70.22;96212.06;6207559;28;20209;-59
2024/01/03 06:10:03;;;;;;;1.43;0.20;;;;;;;10.65;69.33;96211.97;6212303;28;20653;-59
2024/01/03 06:13:06;;;;;;;0.63;0.20;;;;;;;10.44;71.34;96218.47;6204851;28;20215;-60
2024/01/03 06:16:11;;;;;;;0.20;0.20;;;;;;;10.45;70.61;96212.09;6211586;28;20696;-59
2024/01/03 06:19:13;;;;;;;0.20;0.20;;;;;;;10.54;69.26;96216.56;6206250;28;20356;-57
2024/01/03 06:22:16;;;;;;;0.10;0.10;;;;;;;10.37;70.42;96210.03;6202559;28;20922;-58
2024/01/03 06:25:18;;;;;;;0.43;0.20;;;;;;;10.66;67.62;96194.13;6207323;28;20201;-57
2024/01/03 06:28:21;;;;;;;1.37;0.27;;;;;;;10.61;67.84;96208.25;6202139;28;20206;-58
2024/01/03 06:31:23;;;;;;;0.70;0.30;;;;;;;10.64;66.88;96210.38;6206414;28;20319;-57
2024/01/03 06:34:25;;;;;;;0.10;0.10;;;;;;;10.25;69.43;96207.72;6201911;28;20208;-59
2024/01/03 06:37:28;;;;;;;0.20;0.20;;;;;;;10.38;69.44;96209.75;6197536;28;20199;-58
2024/01/03 06:40:31;;;;;;;0.67;0.40;;;;;;;10.48;68.65;96264.78;6203516;28;20200;-60
2024/01/03 06:43:33;;;;;;;0.30;0.30;;;;;;;10.29;70.88;96248.66;6203165;28;20207;-59
2024/01/03 06:46:36;;;;;;;0.30;0.20;;;;;;;10.05;72.94;96254.63;6205369;28;20636;-59
2024/01/03 06:49:38;;;;;;;0.27;0.27;;;;;;;10.03;74.23;96266.59;6207168;28;20195;-58
2024/01/03 06:52:40;;;;;;;0.37;0.20;;;;;;;10.28;71.38;96292.31;6209350;28;20705;-57
2024/01/03 06:55:42;;;;;;;0.10;0.10;;;;;;;10.28;70.65;96271.03;6205861;28;20207;-59
2024/01/03 06:58:44;;;;;;;0.40;0.20;;;;;;;10.69;68.74;96270.78;6201050;28;20203;-57
2024/01/03 07:01:47;;;;;;;0.20;0.20;;;;;;;10.56;70.50;96259.69;6203811;28;20201;-59
2024/01/03 07:04:49;;;;;;;1.33;0.20;;;;;;;10.33;72.32;96271.78;6199950;28;20194;-59
2024/01/03 07:07:51;;;;;;;0.30;0.30;;;;;;;10.47;70.54;96271.19;6200798;28;20202;-58
2024/01/03 07:10:53;;;;;;;0.20;0.20;;;;;;;10.17;72.95;96269.47;6201620;28;20228;-56
2024/01/03 07:13:58;;;;;;;0.43;0.20;;;;;;;10.03;74.04;96278.03;6202235;28;20220;-60
2024/01/03 07:17:01;;;;;;;0.20;0.20;;;;;;;9.99;74.35;96276.16;6198898;28;20341;-60
2024/01/03 07:20:03;;;;;;;0.33;0.20;;;;;;;10.18;73.71;96276.38;6198903;28;20228;-57
2024/01/03 07:23:05;;;;;;;0.20;0.10;;;;;;;9.88;75.37;96274.63;6203159;28;20190;-59
2024/01/03 07:26:07;;;;;;;0.30;0.30;;;;;;;9.82;75.28;96261.34;6196847;28;20254;-58
2024/01/03 07:29:09;;;;;;;0.60;0.20;;;;;;;10.35;70.96;96258.22;6204522;28;20198;-56
2024/01/03 07:32:12;;;;;;;1.23;0.20;;;;;;;10.41;70.37;96257.13;6200504;28;20936;-55
2024/01/03 07:35:14;;;;;;;0.20;0.20;;;;;;;10.58;68.77;96281.50;6204638;28;20272;-59
2024/01/03 07:38:16;;;;;;;0.10;0.10;;;;;;;10.15;72.97;96252.94;6204248;28;20222;-60
2024/01/03 07:41:19;;;;;;;0.67;0.30;;;;;;;10.69;66.53;96249.47;6201826;28;20206;-58
2024/01/03 07:44:21;;;;;;;0.10;0.10;;;;;;;10.64;67.98;96270.81;6203889;28;20811;-59
2024/01/03 07:47:23;;;;;;;0.47;0.30;;;;;;;10.40;70.04;96266.19;6197578;28;20657;-58
2024/01/03 07:50:26;;;;;;;0.53;0.10;;;;;;;11.13;62.84;96259.25;6203273;28;20748;-56
2024/01/03 07:53:28;;;;;;;3.03;0.30;;;;;;;11.53;61.01;96272.22;6202302;28;20318;-59
2024/01/03 07:56:30;;;;;;;0.20;0.10;;;;;;;11.24;63.00;96274.91;6200097;28;20258;-60
2024/01/03 07:59:32;;;;;;;0.33;0.20;;;;;;;10.92;65.77;96263.97;6198317;28;20203;-59
2024/01/03 08:02:35;;;;;;;0.30;0.20;;;;;;;10.97;64.46;96266.59;6198875;28;20197;-59
2024/01/03 08:05:37;;;;;;;0.53;0.20;;;;;;;11.08;63.97;96260.91;6198000;28;20208;-61
2024/01/03 08:08:39;;;;;;;0.10;0.10;;;;;;;11.16;63.21;96248.84;6198950;28;20237;-60
2024/01/03 08:11:41;;;;;;;0.10;0.10;;;;;;;10.75;66.13;96249.16;6196680;28;20582;-59
2024/01/03 08:14:43;;;;;;;0.20;0.20;;;;;;;10.70;66.78;96265.19;6207443;28;20223;-58
2024/01/03 08:17:46;;;;;;;0.13;0.13;;;;;;;10.81;66.18;96264.03;6210437;28;20538;-58
2024/01/03 08:20:48;;;;;;;0.50;0.20;;;;;;;11.23;64.34;96265.31;6204669;28;20750;-59
2024/01/03 08:23:50;;;;;;;0.20;0.20;;;;;;;11.28;62.31;96259.94;6212982;28;20664;-57
2024/01/03 08:26:53;;;;;;;0.20;0.20;;;;;;;10.98;65.55;96252.97;6211167;28;20665;-56
2024/01/03 08:29:55;;;;;;;0.67;0.20;;;;;;;11.48;62.11;96277.59;6210969;28;20331;-59
2024/01/03 08:32:59;;;;;;;1.63;0.30;;;;;;;11.41;64.03;96255.00;6212320;28;20287;-57
2024/01/03 08:36:02;;;;;;;0.30;0.30;;;;;;;11.13;65.45;96280.56;6208858;28;20221;-58
2024/01/03 08:39:04;;;;;;;0.17;0.17;;;;;;;11.48;60.66;96232.28;6210300;28;20565;-54
2024/01/03 08:42:07;;;;;;;1.07;0.30;;;;;;;11.51;61.17;96258.34;6211339;28;20280;-60
2024/01/03 08:45:10;;;;;;;0.20;0.20;;;;;;;11.61;60.14;96290.25;6204295;28;20209;-60
2024/01/03 08:48:12;;;;;;;0.30;0.30;;;;;;;11.78;58.59;96273.03;6208311;28;20205;-60
2024/01/03 08:51:17;;;;;;;0.37;0.20;;;;;;;11.33;62.56;96261.75;6202486;28;20666;-58
2024/01/03 08:54:20;;;;;;;0.20;0.20;;;;;;;11.74;59.88;96269.34;6224306;28;20247;-58
2024/01/03 08:57:22;;;;;;;0.20;0.20;;;;;;;11.54;61.90;96295.13;6213170;28;20205;-55
2024/01/03 09:00:24;;;;;;;0.27;0.27;;;;;;;11.54;61.22;96291.69;6209247;28;20211;-59
2024/01/03 09:03:26;;;;;;;0.20;0.20;;;;;;;11.69;60.25;96288.06;6207865;28;20226;-57
2024/01/03 09:06:32;;;;;;;0.17;0.17;;;;;;;11.35;61.33;96327.03;6216489;28;20204;-58
2024/01/03 09:09:35;;;;;;;1.10;0.20;;;;;;;11.73;58.40;96303.22;6207991;28;20218;-56
2024/01/03 09:12:37;;;;;;;0.20;0.20;;;;;;;11.77;58.45;96311.44;6201439;28;20197;-59
2024/01/03 09:15:39;;;;;;;0.47;0.30;;;;;;;11.88;59.70;96310.31;6208043;28;20235;-57
2024/01/03 09:18:41;;;;;;;0.30;0.20;;;;;;;11.78;60.97;96313.84;6206079;28;20818;-59
2024/01/03 09:21:47;;;;;;;1.43;0.30;;;;;;;11.88;61.51;96310.31;6211888;28;20717;-55
2024/01/03 09:24:50;;;;;;;0.73;0.30;;;;;;;11.82;62.73;96301.56;6205340;28;20197;-59
2024/01/03 09:27:52;;;;;;;0.40;0.20;;;;;;;11.80;62.62;96316.22;6203290;28;20201;-59
2024/01/03 09:30:54;;;;;;;0.20;0.20;;;;;;;12.04;59.22;96334.94;6207073;28;20650;-57
2024/01/03 09:33:56;;;;;;;0.20;0.20;;;;;;;11.97;60.34;96332.63;6207822;28;20216;-57
2024/01/03 09:36:59;;;;;;;0.73;0.20;;;;;;;12.36;58.69;96328.94;6208116;28;20204;-59
2024/01/03 09:40:02;;;;;;;0.37;0.23;;;;;;;12.32;60.43;96343.97;6203268;28;20288;-59
2024/01/03 09:43:05;;;;;;;0.37;0.30;;;;;;;12.29;60.22;96363.22;6207561;28;20200;-59
2024/01/03 09:46:10;;;;;;;1.53;0.30;;;;;;;11.92;61.74;96354.03;6228760;28;20570;-60
2024/01/03 09:49:16;;;;;;;1.10;0.30;;;;;;;11.93;60.86;96346.81;6210783;28;20669;-59
2024/01/03 09:57:23;;;;;;;1.23;0.30;;;;;;;11.90;61.32;96377.53;6201979;28;20208;-56
2024/01/03 10:00:29;;;;;;;0.33;0.27;;;;;;;12.02;61.38;96363.78;6202368;28;20249;-59
2024/01/03 10:03:32;;;;;;;0.37;0.37;;;;;;;11.74;63.68;96352.03;6203762;28;20587;-59
2024/01/03 10:06:50;;;;;;;0.20;0.20;;;;;;;11.72;64.30;96372.84;6203164;28;20196;-60
2024/01/03 10:09:54;;;;;;;0.20;0.20;;;;;;;11.81;64.11;96371.97;6207789;28;20197;-62
2024/01/03 10:12:57;;;;;;;0.10;0.10;;;;;;;11.80;63.34;96362.38;6185824;28;20205;-57
2024/01/03 10:16:04;;;;;;;0.50;0.20;;;;;;;11.67;63.70;96344.34;6203549;28;20213;-59
2024/01/03 10:19:15;;;;;;;0.60;0.30;;;;;;;11.70;62.16;96343.00;6199516;28;20567;-59
2024/01/03 10:22:21;;;;;;;0.60;0.30;;;;;;;11.82;62.74;96348.78;6203494;28;20189;-59
2024/01/03 10:25:24;;;;;;;0.30;0.30;;;;;;;11.90;61.22;96374.84;6207513;28;20561;-60
2024/01/03 10:28:27;;;;;;;0.40;0.30;;;;;;;11.79;60.79;96368.00;6204354;28;20234;-59
2024/01/03 10:31:29;;;;;;;0.40;0.30;;;;;;;11.88;60.54;96358.34;6203416;28;20193;-60
2024/01/03 10:34:31;;;;;;;1.13;0.50;;;;;;;11.90;59.41;96347.38;6208116;28;20212;-58
2024/01/03 10:37:34;;;;;;;0.23;0.20;;;;;;;12.03;60.41;96368.06;6205849;28;20212;-59
2024/01/03 10:40:39;;;;;;;0.73;0.20;;;;;;;12.13;58.61;96347.38;6208522;28;20205;-57
2024/01/03 10:43:44;;;;;;;1.70;0.20;;;;;;;12.01;61.34;96346.97;6204794;28;20578;-59
2024/01/03 10:46:51;;;;;;;0.20;0.20;;;;;;;12.10;61.30;96345.28;6203721;28;20669;-59
2024/01/03 10:49:54;;;;;;;1.50;0.30;;;;;;;12.25;59.80;96402.25;6207062;28;20185;-60
2024/01/03 10:52:58;;;;;;;0.30;0.30;;;;;;;12.17;59.10;96365.50;6205862;28;20334;-58
2024/01/03 10:56:02;;;;;;;0.30;0.20;;;;;;;12.14;60.26;96365.00;6205828;28;20216;-58
2024/01/03 10:59:05;;;;;;;0.43;0.30;;;;;;;12.18;60.36;96370.56;6206288;28;20193;-59
2024/01/03 11:02:20;;;;;;;1.90;0.37;;;;;;;12.08;61.00;96379.47;6200170;28;20360;-57
2024/01/03 11:05:54;;;;;;;0.83;0.30;;;;;;;11.91;63.44;96372.97;6201619;28;20213;-59
2024/01/03 11:08:58;;;;;;;1.00;0.30;;;;;;;11.76;64.13;96377.34;6199597;28;20220;-59
2024/01/03 11:12:08;;;;;;;0.20;0.20;;;;;;;11.58;66.66;96354.84;6204821;28;20208;-60
2024/01/03 11:15:26;;;;;;;0.20;0.20;;;;;;;11.32;70.44;96359.56;6200811;28;20677;-59
2024/01/03 11:18:49;;;;;;;1.27;0.20;;;;;;;11.22;74.12;96334.88;6202460;28;20229;-59
2024/01/03 11:21:52;;;;;;;0.20;0.20;;;;;;;11.16;70.45;96298.69;6205102;28;20283;-59
2024/01/03 11:24:54;;;;;;;2.93;0.30;;;;;;;11.22;69.35;96293.03;6203556;28;20378;-59
2024/01/03 11:28:36;;;;;;;0.87;0.20;;;;;;;11.33;67.55;96304.41;6206853;28;20212;-59
2024/01/03 11:32:04;;;;;;;1.30;0.20;;;;;;;11.53;66.57;96285.56;6205988;28;20197;-56
2024/01/03 11:35:08;;;;;;;0.50;0.20;;;;;;;11.66;64.43;96313.41;6201535;28;20216;-58
2024/01/03 11:38:42;;;;;;;0.30;0.30;;;;;;;11.69;64.07;96285.41;6205602;28;20342;-60
2024/01/03 11:41:44;;;;;;;0.40;0.40;;;;;;;11.58;65.36;96277.50;6200663;28;20256;-59
2024/01/03 11:45:13;;;;;;;0.50;0.20;;;;;;;11.67;64.76;96255.53;6200281;28;20192;-59
2024/01/03 11:48:21;;;;;;;0.63;0.30;;;;;;;11.73;63.56;96257.09;6178933;28;20222;-59
2024/01/03 11:51:25;;;;;;;0.40;0.30;;;;;;;11.73;65.12;96260.53;6201214;28;20188;-59
2024/01/03 11:54:31;;;;;;;1.30;0.30;;;;;;;11.74;62.50;96266.66;6199747;28;20756;-56
2024/01/03 11:57:35;;;;;;;0.50;0.30;;;;;;;11.77;62.43;96261.56;6202119;28;20683;-59
2024/01/03 12:00:37;;;;;;;0.40;0.30;;;;;;;11.79;61.10;96253.28;6189818;28;20645;-59
2024/01/03 12:03:39;;;;;;;0.50;0.47;;;;;;;11.97;60.28;96268.59;6208162;28;20283;-60
2024/01/03 12:06:42;;;;;;;2.10;0.50;;;;;;;11.83;61.87;96270.34;6202878;28;20196;-59
2024/01/03 12:09:44;;;;;;;0.50;0.30;;;;;;;11.93;60.69;96274.78;6202282;28;20287;-60
2024/01/03 12:12:48;;;;;;;0.90;0.40;;;;;;;12.06;60.45;96269.50;6201585;28;20197;-59
2024/01/03 12:15:59;;;;;;;0.43;0.37;;;;;;;12.12;59.19;96263.06;6207466;28;20216;-60
2024/01/03 12:19:06;;;;;;;1.07;0.40;;;;;;;12.02;58.68;96276.53;6200996;28;20652;-63
2024/01/03 12:22:08;;;;;;;0.37;0.20;;;;;;;12.24;57.63;96257.28;6194214;28;20209;-60
2024/01/03 12:25:24;;;;;;;0.73;0.30;;;;;;;11.98;59.53;96245.34;6198104;28;20216;-60
2024/01/03 12:28:26;;;;;;;0.37;0.30;;;;;;;12.02;57.75;96251.69;6183165;28;20210;-60
2024/01/03 12:31:28;;;;;;;1.73;0.27;;;;;;;12.15;56.15;96245.66;6203138;28;20200;-59
2024/01/03 12:34:31;;;;;;;0.30;0.30;;;;;;;12.03;57.36;96254.09;6199709;28;20210;-59
2024/01/03 12:37:33;;;;;;;1.70;0.30;;;;;;;12.24;56.39;96270.63;6206709;28;20189;-59
2024/01/03 12:40:35;;;;;;;2.07;0.50;;;;;;;12.21;56.02;96243.72;6204818;28;20202;-59
2024/01/03 12:43:37;;;;;;;0.27;0.27;;;;;;;12.03;57.75;96243.41;6202403;28;20189;-60
2024/01/03 12:46:39;;;;;;;1.60;0.30;;;;;;;12.00;57.01;96249.31;6198492;28;20571;-60
2024/01/03 12:49:42;;;;;;;1.20;0.30;;;;;;;12.10;57.34;96221.69;6207477;28;20260;-58
2024/01/03 12:52:44;;;;;;;0.33;0.33;;;;;;;11.93;58.24;96272.88;6203895;28;20239;-58
2024/01/03 12:55:47;;;;;;;0.50;0.37;;;;;;;12.24;55.47;96233.25;6210328;28;20709;-60
2024/01/03 12:58:49;;;;;;;0.67;0.47;;;;;;;12.03;56.39;96230.06;6205677;28;20205;-59
2024/01/03 13:01:51;;;;;;;0.60;0.40;;;;;;;12.07;56.45;96240.97;6208026;28;20208;-60
2024/01/03 13:04:54;;;;;;;0.40;0.37;;;;;;;12.23;56.21;96239.69;6206050;28;20185;-60
2024/01/03 13:07:56;;;;;;;0.40;0.30;;;;;;;12.22;55.95;96245.31;6201883;28;20664;-56
2024/01/03 13:10:58;;;;;;;3.43;0.40;;;;;;;12.23;55.11;96236.22;6199306;28;20197;-60
2024/01/03 13:14:02;;;;;;;0.40;0.30;;;;;;;12.06;57.39;96229.47;6207482;28;20196;-61
2024/01/03 13:17:04;;;;;;;0.83;0.30;;;;;;;11.88;56.37;96233.72;6206300;28;20736;-59
2024/01/03 13:20:07;;;;;;;1.63;0.60;;;;;;;11.84;57.06;96245.25;6204996;28;20291;-59
2024/01/03 13:23:09;;;;;;;0.30;0.30;;;;;;;11.87;56.72;96233.97;6207935;28;20189;-62
2024/01/03 13:26:12;;;;;;;1.67;0.47;;;;;;;11.59;59.27;96239.09;6208564;28;20197;-61
2024/01/03 13:29:14;;;;;;;1.40;0.30;;;;;;;11.45;59.38;96229.38;6207398;28;20679;-60
2024/01/03 13:32:16;;;;;;;0.90;0.37;;;;;;;11.74;56.80;96240.78;6205457;28;20204;-60
2024/01/03 13:35:19;;;;;;;0.90;0.40;;;;;;;11.99;55.55;96234.38;6202800;28;20209;-57
2024/01/03 13:38:22;;;;;;;1.70;0.50;;;;;;;11.97;56.66;96249.06;6206809;28;20197;-59
2024/01/03 13:41:24;;;;;;;0.63;0.30;;;;;;;11.76;56.92;96238.63;6204068;28;20208;-60
2024/01/03 13:44:26;;;;;;;2.10;0.43;;;;;;;11.46;58.45;96247.75;6210409;28;20849;-60
2024/01/03 13:47:29;;;;;;;1.00;0.43;;;;;;;11.67;56.74;96253.66;6207120;28;20197;-58
2024/01/03 13:50:31;;;;;;;0.57;0.40;;;;;;;11.66;57.63;96248.59;6206891;28;20696;-58
2024/01/03 13:53:34;;;;;;;0.30;0.30;;;;;;;11.46;57.14;96238.94;6209833;28;20635;-59
2024/01/03 13:56:36;;;;;;;0.53;0.37;;;;;;;11.77;54.88;96244.75;6201086;28;20846;-59
2024/01/03 13:59:38;;;;;;;1.07;0.50;;;;;;;11.88;55.17;96254.28;6204468;28;20217;-60
2024/01/03 14:02:42;;;;;;;0.93;0.30;;;;;;;11.73;56.06;96247.19;6206985;28;20204;-60
2024/01/03 14:05:45;;;;;;;1.50;0.50;;;;;;;11.77;54.96;96234.88;6201424;28;20199;-60
2024/01/03 14:08:47;;;;;;;1.17;0.47;;;;;;;11.51;56.60;96221.03;6202385;28;20205;-60
2024/01/03 14:11:49;;;;;;;0.30;0.30;;;;;;;11.48;57.61;96220.81;6183206;28;21118;-59
2024/01/03 14:14:52;;;;;;;1.47;0.70;;;;;;;11.39;56.94;96239.28;6197434;28;20601;-59
2024/01/03 14:17:55;;;;;;;1.00;0.50;;;;;;;11.24;57.52;96231.44;6205507;28;20674;-59
2024/01/03 14:20:57;;;;;;;0.40;0.27;;;;;;;11.40;56.90;96230.22;6206188;28;20573;-60
2024/01/03 14:24:00;;;;;;;0.50;0.30;;;;;;;11.39;58.25;96217.16;6205420;28;20719;-56
2024/01/03 14:27:02;;;;;;;1.27;0.43;;;;;;;11.23;57.71;96227.16;6203894;28;20195;-56
2024/01/03 14:30:09;;;;;;;2.53;0.40;;;;;;;11.32;57.46;96231.59;6198722;28;20205;-59
2024/01/03 14:33:12;;;;;;;0.73;0.30;;;;;;;11.35;57.88;96252.38;6197410;28;20795;-60